createdAt,value
2022-08-12T00:05:10.289Z,43.26
2022-08-12T00:10:26.739Z,43.51
2022-08-12T00:15:42.148Z,43.18
2022-08-12T00:21:02.621Z,43.54
2022-08-12T00:26:21.474Z,43.26
2022-08-12T00:32:12.366Z,43.25
2022-08-12T00:37:53.716Z,43.64
2022-08-12T00:42:54.471Z,43.80
2022-08-12T00:47:53.485Z,43.69
2022-08-12T00:52:52.609Z,43.34
2022-08-12T00:57:53.046Z,43.89
2022-08-12T01:02:56.956Z,44.06
2022-08-12T01:09:16.471Z,43.81
2022-08-12T01:13:39.011Z,44.07
2022-08-12T01:18:41.676Z,43.97
2022-08-12T01:23:54.746Z,43.81
2022-08-12T01:28:55.909Z,43.12
2022-08-12T01:34:04.972Z,42.58
2022-08-12T01:39:32.192Z,42.85
2022-08-12T01:44:34.577Z,42.28
2022-08-12T01:50:15.800Z,42.21
2022-08-12T01:55:16.003Z,42.72
2022-08-12T02:00:16.443Z,42.92
2022-08-12T02:05:58.704Z,42.88
2022-08-12T02:11:21.011Z,43.12
2022-08-12T02:16:44.905Z,43.38
2022-08-12T02:21:47.509Z,43.00
2022-08-12T02:26:49.626Z,43.08
2022-08-12T02:31:53.964Z,43.20
2022-08-12T02:37:02.647Z,43.30
2022-08-12T02:42:04.726Z,43.29
2022-08-12T02:47:58.118Z,43.35
2022-08-12T02:52:42.357Z,43.62
2022-08-12T02:57:52.056Z,43.49
2022-08-12T03:02:59.796Z,43.82
2022-08-12T03:08:00.458Z,43.84
2022-08-12T03:13:01.161Z,43.61
2022-08-12T03:18:24.910Z,43.68
2022-08-12T03:23:30.176Z,43.43
2022-08-12T03:28:49.636Z,43.23
2022-08-12T03:34:01.856Z,43.32
2022-08-12T03:39:35.316Z,43.05
2022-08-12T03:44:56.924Z,43.20
2022-08-12T03:50:12.877Z,42.95
2022-08-12T03:55:34.103Z,42.63
2022-08-12T04:00:33.162Z,43.02
2022-08-12T04:05:56.039Z,43.04
2022-08-12T04:16:27.284Z,42.23
2022-08-12T04:21:33.690Z,42.02
2022-08-12T04:26:39.419Z,41.84
2022-08-12T04:31:39.351Z,41.69
2022-08-12T04:36:40.556Z,41.52
2022-08-12T04:41:39.152Z,41.24
2022-08-12T04:46:55.442Z,41.15
2022-08-12T04:51:54.577Z,41.11
2022-08-12T04:57:04.798Z,40.64
2022-08-12T05:02:34.161Z,40.85
2022-08-12T05:08:10.903Z,41.26
2022-08-12T05:13:53.433Z,41.46
2022-08-12T05:18:50.790Z,41.40
2022-08-12T05:23:54.436Z,41.11
2022-08-12T05:28:53.654Z,40.82
2022-08-12T05:34:01.451Z,40.35
2022-08-12T05:39:07.862Z,37.90
2022-08-12T05:44:06.663Z,34.31
2022-08-12T05:49:08.851Z,30.00
2022-08-12T05:54:10.924Z,27.57
2022-08-12T05:59:17.260Z,25.59
2022-08-12T06:04:14.645Z,26.01
2022-08-12T06:09:15.395Z,26.56
2022-08-12T06:14:53.338Z,26.14
2022-08-12T06:20:26.112Z,26.53
2022-08-12T06:25:29.741Z,26.37
2022-08-12T06:30:38.024Z,25.23
2022-08-12T06:35:50.968Z,25.74
2022-08-12T06:41:13.013Z,26.63
2022-08-12T06:46:10.875Z,26.70
2022-08-12T06:51:14.763Z,27.02
2022-08-12T06:56:45.925Z,26.63
2022-08-12T07:02:00.970Z,27.63
2022-08-12T07:07:09.047Z,27.72
2022-08-12T07:12:19.243Z,28.29
2022-08-12T07:17:16.405Z,27.40
2022-08-12T07:22:16.681Z,25.90
2022-08-12T07:27:13.951Z,26.23
2022-08-12T07:32:14.796Z,25.78
2022-08-12T07:37:17.455Z,24.48
2022-08-12T07:42:18.448Z,24.39
2022-08-12T07:47:29.249Z,24.69
2022-08-12T07:53:50.157Z,24.72
2022-08-12T07:59:21.259Z,23.51
2022-08-12T08:04:46.336Z,22.58
2022-08-12T08:10:38.944Z,21.74
2022-08-12T08:21:39.914Z,22.39
2022-08-12T08:27:13.283Z,20.89
2022-08-12T08:32:16.059Z,20.64
2022-08-12T08:43:44.687Z,21.26
2022-08-12T08:49:04.888Z,20.65
2022-08-12T08:54:03.946Z,20.50
2022-08-12T08:59:11.632Z,19.92
2022-08-12T09:05:08.964Z,19.05
2022-08-12T09:15:35.337Z,20.27
2022-08-12T09:28:05.087Z,19.80
2022-08-12T09:38:30.238Z,19.08
2022-08-12T09:49:46.012Z,18.04
2022-08-12T09:56:07.122Z,18.88
2022-08-12T10:00:43.241Z,17.28
2022-08-12T10:06:31.825Z,16.25
2022-08-12T10:12:12.975Z,15.70
2022-08-12T10:18:13.464Z,15.92
2022-08-12T10:23:45.921Z,16.65
2022-08-12T10:30:40.334Z,17.38
2022-08-12T10:36:08.979Z,18.97
2022-08-12T10:42:29.258Z,18.68
2022-08-12T10:48:19.222Z,19.70
2022-08-12T10:53:49.374Z,19.90
2022-08-12T10:58:59.915Z,20.32
2022-08-12T11:10:01.050Z,21.85
2022-08-12T11:15:18.573Z,22.03
2022-08-12T11:20:23.983Z,23.17
2022-08-12T11:25:55.971Z,23.43
2022-08-12T11:31:16.590Z,23.74
2022-08-12T11:36:21.911Z,23.28
2022-08-12T11:41:31.261Z,23.71
2022-08-12T11:47:10.559Z,23.70
2022-08-12T11:52:27.996Z,24.42
2022-08-12T11:59:02.994Z,23.87
2022-08-12T12:04:34.249Z,24.11
2022-08-12T12:09:52.898Z,24.67
2022-08-12T12:15:25.265Z,24.24
2022-08-12T12:21:01.192Z,24.41
2022-08-12T12:26:35.500Z,22.80
2022-08-12T12:32:11.071Z,22.50
2022-08-12T12:37:01.229Z,23.27
2022-08-12T12:42:47.604Z,23.30
2022-08-12T12:47:38.709Z,23.03
2022-08-12T12:54:05.804Z,22.74
2022-08-12T12:59:33.684Z,22.94
2022-08-12T13:10:38.982Z,24.28
2022-08-12T13:16:14.369Z,23.55
2022-08-12T13:26:46.980Z,23.25
2022-08-12T13:32:19.684Z,22.61
2022-08-12T13:37:09.810Z,22.98
2022-08-12T13:42:14.616Z,23.71
2022-08-12T13:47:24.062Z,23.66
2022-08-12T13:53:00.211Z,23.16
2022-08-12T14:05:01.804Z,22.98
2022-08-12T14:10:36.099Z,22.99
2022-08-12T14:21:58.857Z,23.12
2022-08-12T14:28:03.977Z,23.58
2022-08-12T14:33:43.974Z,23.66
2022-08-12T14:38:53.861Z,24.11
2022-08-12T14:44:57.732Z,23.92
2022-08-12T14:50:41.648Z,23.54
2022-08-12T15:06:44.141Z,23.52
2022-08-12T15:11:55.388Z,23.71
2022-08-12T15:17:09.985Z,24.01
2022-08-12T15:22:37.912Z,23.94
2022-08-12T15:28:04.482Z,23.96
2022-08-12T15:33:20.935Z,23.62
2022-08-12T15:38:34.839Z,23.41
2022-08-12T15:44:38.735Z,24.14
2022-08-12T15:50:26.509Z,24.07
2022-08-12T15:55:26.843Z,24.69
2022-08-12T16:00:33.995Z,25.04
2022-08-12T16:06:11.253Z,25.88
2022-08-12T16:16:23.708Z,26.40
2022-08-12T16:21:51.932Z,26.71
2022-08-12T16:27:07.665Z,26.43
2022-08-12T16:32:19.322Z,26.90
2022-08-12T16:38:24.198Z,27.35
2022-08-12T16:43:01.963Z,27.99
2022-08-12T16:48:03.532Z,28.16
2022-08-12T16:53:46.743Z,27.96
2022-08-12T16:58:46.677Z,27.99
2022-08-12T17:04:08.115Z,28.93
2022-08-12T17:09:49.472Z,29.58
2022-08-12T17:14:57.554Z,30.25
2022-08-12T17:20:36.705Z,30.68
2022-08-12T17:25:45.706Z,31.23
2022-08-12T17:30:57.462Z,31.26
2022-08-12T17:36:04.079Z,31.48
2022-08-12T17:41:22.405Z,31.76
2022-08-12T17:46:24.054Z,32.21
2022-08-12T17:51:34.289Z,32.66
2022-08-12T17:57:20.123Z,32.81
2022-08-12T18:03:11.824Z,33.12
2022-08-12T18:16:03.796Z,33.16
2022-08-12T18:26:46.016Z,33.13
2022-08-12T18:32:03.420Z,33.79
2022-08-12T18:37:41.133Z,34.63
2022-08-12T18:42:57.021Z,34.95
2022-08-12T18:48:33.070Z,35.23
2022-08-12T18:54:07.336Z,35.48
2022-08-12T18:59:05.005Z,36.12
2022-08-12T19:04:59.801Z,36.54
2022-08-12T19:10:50.787Z,37.12
2022-08-12T19:15:51.619Z,37.45
2022-08-12T19:20:55.597Z,37.77
2022-08-12T19:26:14.854Z,38.11
2022-08-12T19:38:04.207Z,38.56
2022-08-12T19:43:40.758Z,39.02
2022-08-12T19:48:47.335Z,39.47
2022-08-12T20:00:04.368Z,40.54
2022-08-12T20:06:06.638Z,40.46
2022-08-12T20:17:10.664Z,41.44
2022-08-12T20:22:50.148Z,42.00
2022-08-12T20:28:06.498Z,42.59
2022-08-12T20:33:18.602Z,43.07
2022-08-12T20:38:26.336Z,43.41
2022-08-12T20:43:57.821Z,43.88
2022-08-12T20:55:15.499Z,44.83
2022-08-12T21:00:22.804Z,45.02
2022-08-12T21:06:13.601Z,45.72
2022-08-12T21:11:39.327Z,45.75
2022-08-12T21:16:44.480Z,46.08
2022-08-12T21:21:54.406Z,46.23
2022-08-12T21:27:08.898Z,46.19
2022-08-12T21:32:39.258Z,46.37
2022-08-12T21:38:09.785Z,46.62
2022-08-12T21:43:07.802Z,46.84
2022-08-12T21:48:12.652Z,47.08
2022-08-12T21:53:15.183Z,47.46
2022-08-12T21:58:16.901Z,47.76
2022-08-12T22:04:04.306Z,47.87
2022-08-12T22:08:59.459Z,48.06
2022-08-12T22:14:09.790Z,48.19
2022-08-12T22:19:18.787Z,48.11
2022-08-12T22:24:26.919Z,48.09
2022-08-12T22:29:52.650Z,48.49
2022-08-12T22:35:11.681Z,48.74
2022-08-12T22:40:19.845Z,49.11
2022-08-12T22:45:48.291Z,48.99
2022-08-12T22:51:10.047Z,49.13
2022-08-12T22:56:12.306Z,49.53
2022-08-12T23:01:21.570Z,49.55
2022-08-12T23:06:43.847Z,49.67
2022-08-12T23:11:49.684Z,49.53
2022-08-12T23:17:21.373Z,49.70
2022-08-12T23:22:36.951Z,49.86
2022-08-12T23:27:55.860Z,49.11
2022-08-12T23:33:00.946Z,49.06
2022-08-12T23:38:02.804Z,49.09
2022-08-12T23:43:12.288Z,49.57
2022-08-12T23:48:09.715Z,49.93
2022-08-12T23:53:32.297Z,50.21
2022-08-12T23:58:32.455Z,49.73
